Bloomingburg, Ohio
Current Conditions -  °F | °C
As of 5:15 PM on Thursday 23 Oct 2014 (Local Time) from KUYF Reporting Station
Clear Clear  
Wind Chill: 59°   Ceiling: Unl
Heat Index: 59°   Visibility: 10mi
Dew Point: 39°   Wind: 0mph
Humidity: 48%   Direction: NA
Pressure: 30.13"   Gusts: NA
Location:  39.61°N, 83.4°W
Report Text: KUYF 232115Z AUTO 00000KT 10SM CLR 15/04 A3013 RMK AO2
Loading
Personal Weather Stations






























Interactive Weather Map
Tropical Storm Tracking
New forecast layout! Learn more

10-Day Weather Forecast

Advertisements
Track Severe Weather on mobile